sensor_id;sensor_type;location;lat;lon;timestamp;pressure;altitude;pressure_sealevel;temperature;humidity
68712;BME280;55690;51.566;19.198;2023-02-27T00:00:56;102254.71;;;7.25;63.90
68712;BME280;55690;51.566;19.198;2023-02-27T00:05:02;102259.26;;;6.98;64.03
68712;BME280;55690;51.566;19.198;2023-02-27T00:09:07;102264.23;;;6.85;64.61
68712;BME280;55690;51.566;19.198;2023-02-27T00:13:13;102268.80;;;6.83;63.92
68712;BME280;55690;51.566;19.198;2023-02-27T00:17:19;102265.64;;;6.95;64.34
68712;BME280;55690;51.566;19.198;2023-02-27T00:21:26;102264.88;;;6.39;64.63
68712;BME280;55690;51.566;19.198;2023-02-27T00:25:32;102274.01;;;6.61;64.79
68712;BME280;55690;51.566;19.198;2023-02-27T00:29:37;102275.63;;;6.67;65.07
68712;BME280;55690;51.566;19.198;2023-02-27T00:33:44;102274.79;;;6.39;65.13
68712;BME280;55690;51.566;19.198;2023-02-27T00:37:50;102280.05;;;6.70;64.93
68712;BME280;55690;51.566;19.198;2023-02-27T00:41:56;102269.18;;;6.97;64.19
68712;BME280;55690;51.566;19.198;2023-02-27T00:46:02;102260.48;;;7.14;63.55
68712;BME280;55690;51.566;19.198;2023-02-27T00:50:09;102258.83;;;7.10;63.82
68712;BME280;55690;51.566;19.198;2023-02-27T00:54:15;102267.45;;;7.21;63.48
68712;BME280;55690;51.566;19.198;2023-02-27T00:58:21;102261.46;;;7.37;64.35
68712;BME280;55690;51.566;19.198;2023-02-27T01:02:27;102253.91;;;7.46;63.24
68712;BME280;55690;51.566;19.198;2023-02-27T01:06:33;102254.34;;;7.36;63.80
68712;BME280;55690;51.566;19.198;2023-02-27T01:10:39;102248.29;;;7.03;65.29
68712;BME280;55690;51.566;19.198;2023-02-27T01:14:46;102248.74;;;6.38;65.99
68712;BME280;55690;51.566;19.198;2023-02-27T01:18:52;102253.36;;;6.60;65.86
68712;BME280;55690;51.566;19.198;2023-02-27T01:22:58;102260.27;;;6.43;66.18
68712;BME280;55690;51.566;19.198;2023-02-27T01:27:04;102273.92;;;6.09;66.92
68712;BME280;55690;51.566;19.198;2023-02-27T01:31:10;102269.36;;;6.11;66.29
68712;BME280;55690;51.566;19.198;2023-02-27T01:35:17;102268.22;;;6.47;66.69
68712;BME280;55690;51.566;19.198;2023-02-27T01:39:23;102266.29;;;6.23;66.93
68712;BME280;55690;51.566;19.198;2023-02-27T01:43:29;102270.71;;;6.25;67.67
68712;BME280;55690;51.566;19.198;2023-02-27T01:47:40;102274.79;;;6.39;67.18
68712;BME280;55690;51.566;19.198;2023-02-27T01:51:58;102277.48;;;6.39;67.15
68712;BME280;55690;51.566;19.198;2023-02-27T01:55:59;102287.29;;;5.82;68.48
68712;BME280;55690;51.566;19.198;2023-02-27T02:00:03;102275.95;;;6.02;67.99
68712;BME280;55690;51.566;19.198;2023-02-27T02:08:20;102290.51;;;6.52;68.17
68712;BME280;55690;51.566;19.198;2023-02-27T02:12:26;102281.30;;;6.31;68.77
68712;BME280;55690;51.566;19.198;2023-02-27T03:11:29;102346.94;;;6.32;71.46
68712;BME280;55690;51.566;19.198;2023-02-27T03:15:39;102348.43;;;6.42;71.30
68712;BME280;55690;51.566;19.198;2023-02-27T03:19:54;102353.45;;;6.25;71.82
68712;BME280;55690;51.566;19.198;2023-02-27T03:23:59;102348.45;;;6.11;72.38
68712;BME280;55690;51.566;19.198;2023-02-27T03:28:07;102358.61;;;6.32;72.25
68712;BME280;55690;51.566;19.198;2023-02-27T03:49:03;102369.91;;;6.45;72.80
68712;BME280;55690;51.566;19.198;2023-02-27T03:53:12;102372.35;;;6.53;72.27
68712;BME280;55690;51.566;19.198;2023-02-27T03:57:16;102375.51;;;6.67;71.90
68712;BME280;55690;51.566;19.198;2023-02-27T04:01:18;102387.98;;;6.71;71.91
68712;BME280;55690;51.566;19.198;2023-02-27T04:05:20;102382.09;;;6.86;71.61
68712;BME280;55690;51.566;19.198;2023-02-27T04:09:29;102380.94;;;6.93;71.70
68712;BME280;55690;51.566;19.198;2023-02-27T04:30:40;102399.57;;;6.47;72.68
68712;BME280;55690;51.566;19.198;2023-02-27T04:34:48;102409.88;;;6.32;73.10
68712;BME280;55690;51.566;19.198;2023-02-27T04:39:03;102409.55;;;6.43;72.76
68712;BME280;55690;51.566;19.198;2023-02-27T04:43:08;102411.98;;;6.80;71.87
68712;BME280;55690;51.566;19.198;2023-02-27T04:47:14;102413.44;;;6.62;72.57
68712;BME280;55690;51.566;19.198;2023-02-27T04:51:22;102419.73;;;6.63;72.75
68712;BME280;55690;51.566;19.198;2023-02-27T04:55:32;102411.18;;;6.49;72.76
68712;BME280;55690;51.566;19.198;2023-02-27T04:59:40;102418.71;;;6.38;73.27
68712;BME280;55690;51.566;19.198;2023-02-27T05:03:47;102428.15;;;6.82;72.44
68712;BME280;55690;51.566;19.198;2023-02-27T05:07:55;102431.92;;;6.76;72.36
68712;BME280;55690;51.566;19.198;2023-02-27T05:12:02;102428.20;;;6.80;71.97
68712;BME280;55690;51.566;19.198;2023-02-27T05:20:18;102424.24;;;7.18;71.45
68712;BME280;55690;51.566;19.198;2023-02-27T05:28:36;102428.98;;;6.84;72.55
68712;BME280;55690;51.566;19.198;2023-02-27T05:32:55;102440.06;;;7.03;71.63
68712;BME280;55690;51.566;19.198;2023-02-27T05:36:59;102436.27;;;7.36;70.46
68712;BME280;55690;51.566;19.198;2023-02-27T05:41:09;102439.67;;;7.15;70.72
68712;BME280;55690;51.566;19.198;2023-02-27T05:45:19;102444.58;;;7.02;71.13
68712;BME280;55690;51.566;19.198;2023-02-27T05:49:34;102455.48;;;6.71;72.27
68712;BME280;55690;51.566;19.198;2023-02-27T05:53:47;102462.17;;;6.58;72.81
68712;BME280;55690;51.566;19.198;2023-02-27T06:02:02;102475.24;;;6.42;73.71
68712;BME280;55690;51.566;19.198;2023-02-27T06:06:06;102479.30;;;6.57;72.75
68712;BME280;55690;51.566;19.198;2023-02-27T06:10:13;102476.13;;;6.43;72.63
68712;BME280;55690;51.566;19.198;2023-02-27T06:14:15;102494.18;;;6.41;73.57
68712;BME280;55690;51.566;19.198;2023-02-27T06:18:18;102485.87;;;6.48;73.14
68712;BME280;55690;51.566;19.198;2023-02-27T06:22:19;102488.88;;;6.67;72.90
68712;BME280;55690;51.566;19.198;2023-02-27T06:26:21;102497.64;;;6.46;72.95
68712;BME280;55690;51.566;19.198;2023-02-27T06:30:22;102496.84;;;6.72;73.09
68712;BME280;55690;51.566;19.198;2023-02-27T06:34:24;102501.94;;;6.51;73.21
68712;BME280;55690;51.566;19.198;2023-02-27T06:38:25;102496.96;;;6.38;73.56
68712;BME280;55690;51.566;19.198;2023-02-27T06:42:27;102509.42;;;6.73;72.97
68712;BME280;55690;51.566;19.198;2023-02-27T06:46:28;102508.02;;;6.28;73.62
68712;BME280;55690;51.566;19.198;2023-02-27T06:50:30;102514.17;;;6.33;73.66
68712;BME280;55690;51.566;19.198;2023-02-27T06:54:31;102521.14;;;6.72;73.13
68712;BME280;55690;51.566;19.198;2023-02-27T06:58:34;102524.11;;;6.31;73.54
68712;BME280;55690;51.566;19.198;2023-02-27T07:02:36;102524.63;;;6.75;72.78
68712;BME280;55690;51.566;19.198;2023-02-27T07:06:37;102519.29;;;6.74;72.93
68712;BME280;55690;51.566;19.198;2023-02-27T07:10:38;102529.43;;;6.34;73.44
68712;BME280;55690;51.566;19.198;2023-02-27T07:14:43;102520.88;;;6.81;72.78
68712;BME280;55690;51.566;19.198;2023-02-27T07:18:45;102526.19;;;6.53;72.57
68712;BME280;55690;51.566;19.198;2023-02-27T07:22:46;102528.54;;;7.24;71.73
68712;BME280;55690;51.566;19.198;2023-02-27T07:26:48;102537.65;;;6.61;72.39
68712;BME280;55690;51.566;19.198;2023-02-27T07:30:52;102542.20;;;6.59;72.93
68712;BME280;55690;51.566;19.198;2023-02-27T07:34:55;102548.11;;;6.73;73.16
68712;BME280;55690;51.566;19.198;2023-02-27T07:38:56;102549.84;;;6.45;72.23
68712;BME280;55690;51.566;19.198;2023-02-27T07:42:58;102533.14;;;6.61;72.31
68712;BME280;55690;51.566;19.198;2023-02-27T07:47:00;102546.73;;;6.89;71.70
68712;BME280;55690;51.566;19.198;2023-02-27T07:51:01;102535.67;;;7.26;71.71
68712;BME280;55690;51.566;19.198;2023-02-27T07:57:57;102558.29;;;5.98;74.00
68712;BME280;55690;51.566;19.198;2023-02-27T08:02:03;102560.16;;;6.29;74.29
68712;BME280;55690;51.566;19.198;2023-02-27T08:06:09;102568.23;;;5.96;74.94
68712;BME280;55690;51.566;19.198;2023-02-27T08:10:16;102580.36;;;5.77;73.89
68712;BME280;55690;51.566;19.198;2023-02-27T08:14:22;102575.82;;;5.42;74.64
68712;BME280;55690;51.566;19.198;2023-02-27T08:18:28;102578.76;;;5.68;74.01
68712;BME280;55690;51.566;19.198;2023-02-27T08:22:34;102572.35;;;6.75;72.79
68712;BME280;55690;51.566;19.198;2023-02-27T08:26:40;102587.13;;;6.61;72.69
68712;BME280;55690;51.566;19.198;2023-02-27T08:30:47;102586.02;;;6.68;72.14
68712;BME280;55690;51.566;19.198;2023-02-27T08:34:53;102592.25;;;7.01;70.84
68712;BME280;55690;51.566;19.198;2023-02-27T08:38:59;102588.07;;;6.91;69.17
68712;BME280;55690;51.566;19.198;2023-02-27T08:43:05;102598.20;;;5.83;71.31
68712;BME280;55690;51.566;19.198;2023-02-27T08:47:11;102601.39;;;6.34;71.37
68712;BME280;55690;51.566;19.198;2023-02-27T08:51:18;102597.89;;;6.30;71.36
68712;BME280;55690;51.566;19.198;2023-02-27T08:55:23;102602.56;;;6.24;69.30
68712;BME280;55690;51.566;19.198;2023-02-27T08:59:30;102607.18;;;6.19;67.91
68712;BME280;55690;51.566;19.198;2023-02-27T09:03:36;102615.39;;;6.14;68.89
68712;BME280;55690;51.566;19.198;2023-02-27T09:07:42;102609.68;;;6.26;67.36
68712;BME280;55690;51.566;19.198;2023-02-27T09:11:49;102612.74;;;6.47;67.52
68712;BME280;55690;51.566;19.198;2023-02-27T09:15:55;102609.68;;;6.91;66.59
68712;BME280;55690;51.566;19.198;2023-02-27T09:20:01;102612.17;;;6.97;66.14
68712;BME280;55690;51.566;19.198;2023-02-27T09:24:08;102611.48;;;7.50;65.36
68712;BME280;55690;51.566;19.198;2023-02-27T09:28:14;102620.33;;;7.27;64.95
68712;BME280;55690;51.566;19.198;2023-02-27T09:32:20;102623.95;;;7.82;64.35
68712;BME280;55690;51.566;19.198;2023-02-27T09:36:25;102616.10;;;7.46;62.96
68712;BME280;55690;51.566;19.198;2023-02-27T09:40:37;102615.45;;;7.94;62.52
68712;BME280;55690;51.566;19.198;2023-02-27T09:48:51;102638.19;;;7.60;61.64
68712;BME280;55690;51.566;19.198;2023-02-27T09:52:54;102650.48;;;7.12;60.59
68712;BME280;55690;51.566;19.198;2023-02-27T09:57:01;102651.84;;;6.95;62.73
68712;BME280;55690;51.566;19.198;2023-02-27T10:13:58;102668.49;;;6.48;64.06
68712;BME280;55690;51.566;19.198;2023-02-27T10:18:17;102672.98;;;6.12;63.35
68712;BME280;55690;51.566;19.198;2023-02-27T10:22:29;102671.77;;;6.25;63.76
68712;BME280;55690;51.566;19.198;2023-02-27T10:26:37;102678.82;;;6.64;62.69
68712;BME280;55690;51.566;19.198;2023-02-27T10:30:41;102676.61;;;7.11;62.79
68712;BME280;55690;51.566;19.198;2023-02-27T10:39:04;102678.65;;;7.03;59.67
68712;BME280;55690;51.566;19.198;2023-02-27T10:43:07;102676.67;;;6.77;58.69
68712;BME280;55690;51.566;19.198;2023-02-27T10:47:13;102670.36;;;7.09;58.70
68712;BME280;55690;51.566;19.198;2023-02-27T10:51:22;102672.28;;;6.41;59.40
68712;BME280;55690;51.566;19.198;2023-02-27T10:55:29;102667.45;;;6.86;58.94
68712;BME280;55690;51.566;19.198;2023-02-27T10:59:36;102666.65;;;7.43;58.41
68712;BME280;55690;51.566;19.198;2023-02-27T11:03:40;102672.22;;;6.76;56.37
68712;BME280;55690;51.566;19.198;2023-02-27T11:07:43;102670.66;;;6.98;57.80
68712;BME280;55690;51.566;19.198;2023-02-27T11:11:45;102671.70;;;7.55;56.81
68712;BME280;55690;51.566;19.198;2023-02-27T11:20:01;102672.59;;;6.28;56.42
68712;BME280;55690;51.566;19.198;2023-02-27T11:28:25;102646.39;;;7.85;57.34
68712;BME280;55690;51.566;19.198;2023-02-27T11:36:45;102656.57;;;6.89;57.70
68712;BME280;55690;51.566;19.198;2023-02-27T11:40:51;102640.78;;;7.05;56.77
68712;BME280;55690;51.566;19.198;2023-02-27T11:44:58;102639.41;;;7.21;57.86
68712;BME280;55690;51.566;19.198;2023-02-27T11:57:37;102645.96;;;7.12;57.34
68712;BME280;55690;51.566;19.198;2023-02-27T12:05:59;102649.76;;;6.42;56.57
68712;BME280;55690;51.566;19.198;2023-02-27T12:10:13;102640.78;;;7.05;56.27
68712;BME280;55690;51.566;19.198;2023-02-27T12:14:21;102639.05;;;7.33;57.09
68712;BME280;55690;51.566;19.198;2023-02-27T12:18:38;102647.11;;;7.34;57.90
68712;BME280;55690;51.566;19.198;2023-02-27T12:22:42;102645.61;;;7.24;57.36
68712;BME280;55690;51.566;19.198;2023-02-27T12:26:54;102649.30;;;6.91;59.18
68712;BME280;55690;51.566;19.198;2023-02-27T12:35:21;102656.86;;;6.78;58.38
68712;BME280;55690;51.566;19.198;2023-02-27T12:39:24;102662.74;;;6.60;58.94
68712;BME280;55690;51.566;19.198;2023-02-27T12:52:07;102668.52;;;7.41;58.58
68712;BME280;55690;51.566;19.198;2023-02-27T12:56:13;102670.91;;;7.22;57.98
68712;BME280;55690;51.566;19.198;2023-02-27T13:00:24;102671.89;;;7.49;56.93
68712;BME280;55690;51.566;19.198;2023-02-27T13:04:41;102679.71;;;7.28;56.60
68712;BME280;55690;51.566;19.198;2023-02-27T13:08:57;102687.35;;;6.49;57.77
68712;BME280;55690;51.566;19.198;2023-02-27T13:13:10;102678.48;;;7.39;57.54
68712;BME280;55690;51.566;19.198;2023-02-27T13:25:43;102680.09;;;7.75;56.73
68712;BME280;55690;51.566;19.198;2023-02-27T13:34:14;102676.69;;;7.68;55.22
68712;BME280;55690;51.566;19.198;2023-02-27T13:38:31;102682.51;;;7.55;56.43
68712;BME280;55690;51.566;19.198;2023-02-27T13:46:40;102680.32;;;7.67;55.33
68712;BME280;55690;51.566;19.198;2023-02-27T13:50:48;102686.28;;;8.07;54.59
68712;BME280;55690;51.566;19.198;2023-02-27T13:54:50;102685.02;;;8.45;55.14
68712;BME280;55690;51.566;19.198;2023-02-27T13:58:52;102678.65;;;7.91;53.17
68712;BME280;55690;51.566;19.198;2023-02-27T14:02:56;102689.72;;;8.12;53.23
68712;BME280;55690;51.566;19.198;2023-02-27T14:07:03;102693.41;;;7.22;52.81
68712;BME280;55690;51.566;19.198;2023-02-27T14:11:16;102683.77;;;7.73;53.20
68712;BME280;55690;51.566;19.198;2023-02-27T14:19:47;102704.16;;;7.83;54.04
68712;BME280;55690;51.566;19.198;2023-02-27T14:23:49;102702.80;;;7.70;54.05
68712;BME280;55690;51.566;19.198;2023-02-27T14:27:56;102708.08;;;7.43;54.08
68712;BME280;55690;51.566;19.198;2023-02-27T14:32:02;102710.44;;;7.55;54.41
68712;BME280;55690;51.566;19.198;2023-02-27T14:36:12;102709.09;;;7.70;54.64
68712;BME280;55690;51.566;19.198;2023-02-27T14:40:21;102715.15;;;8.06;55.21
68712;BME280;55690;51.566;19.198;2023-02-27T14:44:25;102718.52;;;7.85;54.73
68712;BME280;55690;51.566;19.198;2023-02-27T14:48:28;102730.34;;;7.22;54.64
68712;BME280;55690;51.566;19.198;2023-02-27T14:52:31;102738.43;;;6.91;55.61
68712;BME280;55690;51.566;19.198;2023-02-27T14:56:33;102736.85;;;7.15;56.21
68712;BME280;55690;51.566;19.198;2023-02-27T15:00:40;102740.48;;;7.14;56.22
68712;BME280;55690;51.566;19.198;2023-02-27T15:04:42;102746.81;;;7.44;55.50
68712;BME280;55690;51.566;19.198;2023-02-27T15:08:51;102745.55;;;7.26;56.13
68712;BME280;55690;51.566;19.198;2023-02-27T15:12:53;102749.52;;;7.13;56.21
68712;BME280;55690;51.566;19.198;2023-02-27T15:16:56;102751.02;;;8.13;56.45
68712;BME280;55690;51.566;19.198;2023-02-27T15:20:58;102751.67;;;8.21;56.19
68712;BME280;55690;51.566;19.198;2023-02-27T15:25:00;102755.32;;;8.48;56.11
68712;BME280;55690;51.566;19.198;2023-02-27T15:29:07;102759.74;;;7.93;55.65
68712;BME280;55690;51.566;19.198;2023-02-27T15:33:13;102769.27;;;8.06;56.17
68712;BME280;55690;51.566;19.198;2023-02-27T15:37:24;102779.75;;;7.27;56.61
68712;BME280;55690;51.566;19.198;2023-02-27T15:41:27;102791.89;;;7.11;56.64
68712;BME280;55690;51.566;19.198;2023-02-27T15:45:32;102784.77;;;7.72;56.37
68712;BME280;55690;51.566;19.198;2023-02-27T15:49:35;102790.48;;;7.61;56.38
68712;BME280;55690;51.566;19.198;2023-02-27T15:53:37;102771.51;;;7.31;56.89
68712;BME280;55690;51.566;19.198;2023-02-27T15:57:44;102809.70;;;7.50;56.95
68712;BME280;55690;51.566;19.198;2023-02-27T16:01:47;102819.19;;;7.34;57.16
68712;BME280;55690;51.566;19.198;2023-02-27T16:05:50;102822.95;;;7.28;58.00
68712;BME280;55690;51.566;19.198;2023-02-27T16:10:00;102828.84;;;7.10;57.62
68712;BME280;55690;51.566;19.198;2023-02-27T16:14:03;102830.23;;;7.25;58.42
68712;BME280;55690;51.566;19.198;2023-02-27T16:22:21;102847.45;;;6.87;58.07
68712;BME280;55690;51.566;19.198;2023-02-27T16:26:27;102856.19;;;6.96;57.94
68712;BME280;55690;51.566;19.198;2023-02-27T16:30:32;102849.20;;;7.23;57.30
68712;BME280;55690;51.566;19.198;2023-02-27T16:34:36;102860.62;;;7.34;58.25
68712;BME280;55690;51.566;19.198;2023-02-27T16:38:44;102845.79;;;6.81;58.01
68712;BME280;55690;51.566;19.198;2023-02-27T16:42:46;102873.28;;;6.97;58.85
68712;BME280;55690;51.566;19.198;2023-02-27T16:46:47;102876.80;;;7.00;58.63
68712;BME280;55690;51.566;19.198;2023-02-27T16:50:49;102884.27;;;6.91;59.97
68712;BME280;55690;51.566;19.198;2023-02-27T16:54:51;102893.47;;;6.82;59.58
68712;BME280;55690;51.566;19.198;2023-02-27T16:58:53;102900.07;;;6.69;59.77
68712;BME280;55690;51.566;19.198;2023-02-27T17:02:54;102897.48;;;6.64;59.68
68712;BME280;55690;51.566;19.198;2023-02-27T17:06:59;102899.59;;;6.90;59.99
68712;BME280;55690;51.566;19.198;2023-02-27T17:11:01;102898.62;;;6.93;60.10
68712;BME280;55690;51.566;19.198;2023-02-27T17:15:05;102910.98;;;7.01;60.21
68712;BME280;55690;51.566;19.198;2023-02-27T17:19:07;102906.51;;;7.00;59.40
68712;BME280;55690;51.566;19.198;2023-02-27T17:23:09;102908.13;;;7.08;60.66
68712;BME280;55690;51.566;19.198;2023-02-27T17:27:11;102903.48;;;7.14;60.00
68712;BME280;55690;51.566;19.198;2023-02-27T17:31:14;102910.20;;;6.96;60.43
68712;BME280;55690;51.566;19.198;2023-02-27T17:35:15;102911.90;;;7.00;60.42
68712;BME280;55690;51.566;19.198;2023-02-27T17:39:17;102918.88;;;6.74;60.06
68712;BME280;55690;51.566;19.198;2023-02-27T17:43:18;102924.41;;;6.67;60.33
68712;BME280;55690;51.566;19.198;2023-02-27T17:47:20;102920.84;;;7.04;61.15
68712;BME280;55690;51.566;19.198;2023-02-27T17:51:21;102913.44;;;6.75;60.84
68712;BME280;55690;51.566;19.198;2023-02-27T17:55:22;102916.27;;;6.69;62.18
68712;BME280;55690;51.566;19.198;2023-02-27T17:59:24;102921.09;;;6.55;62.08
68712;BME280;55690;51.566;19.198;2023-02-27T18:03:25;102924.09;;;6.43;62.63
68712;BME280;55690;51.566;19.198;2023-02-27T18:07:26;102914.54;;;6.66;61.35
68712;BME280;55690;51.566;19.198;2023-02-27T18:11:28;102926.70;;;6.47;62.44
68712;BME280;55690;51.566;19.198;2023-02-27T18:15:30;102916.06;;;6.78;62.16
68712;BME280;55690;51.566;19.198;2023-02-27T18:19:31;102924.68;;;6.55;62.64
68712;BME280;55690;51.566;19.198;2023-02-27T18:23:33;102929.84;;;6.66;63.19
68712;BME280;55690;51.566;19.198;2023-02-27T18:27:35;102933.23;;;6.76;63.52
68712;BME280;55690;51.566;19.198;2023-02-27T18:31:41;102923.45;;;6.70;62.77
68712;BME280;55690;51.566;19.198;2023-02-27T18:35:43;102927.63;;;6.85;62.62
68712;BME280;55690;51.566;19.198;2023-02-27T18:39:44;102925.70;;;6.90;62.23
68712;BME280;55690;51.566;19.198;2023-02-27T18:43:46;102940.75;;;6.61;63.53
68712;BME280;55690;51.566;19.198;2023-02-27T18:47:47;102938.58;;;6.39;63.70
68712;BME280;55690;51.566;19.198;2023-02-27T18:51:49;102936.57;;;6.48;63.93
68712;BME280;55690;51.566;19.198;2023-02-27T18:55:50;102941.25;;;6.40;63.49
68712;BME280;55690;51.566;19.198;2023-02-27T18:59:52;102942.05;;;6.44;63.97
68712;BME280;55690;51.566;19.198;2023-02-27T19:03:54;102942.56;;;6.19;64.19
68712;BME280;55690;51.566;19.198;2023-02-27T19:08:03;102946.08;;;6.23;64.83
68712;BME280;55690;51.566;19.198;2023-02-27T19:12:04;102944.38;;;6.19;64.27
68712;BME280;55690;51.566;19.198;2023-02-27T19:16:06;102944.09;;;6.32;64.50
68712;BME280;55690;51.566;19.198;2023-02-27T19:20:09;102953.20;;;6.27;63.73
68712;BME280;55690;51.566;19.198;2023-02-27T19:24:16;102952.32;;;6.26;63.98
68712;BME280;55690;51.566;19.198;2023-02-27T19:28:17;102966.88;;;6.18;65.48
68712;BME280;55690;51.566;19.198;2023-02-27T19:32:19;102965.22;;;6.11;65.50
68712;BME280;55690;51.566;19.198;2023-02-27T19:36:23;102949.80;;;6.17;65.30
68712;BME280;55690;51.566;19.198;2023-02-27T19:40:25;102934.59;;;6.13;64.95
68712;BME280;55690;51.566;19.198;2023-02-27T19:44:28;102959.61;;;6.21;65.18
68712;BME280;55690;51.566;19.198;2023-02-27T19:48:29;102957.68;;;6.28;65.55
68712;BME280;55690;51.566;19.198;2023-02-27T19:52:33;102966.69;;;6.27;64.19
68712;BME280;55690;51.566;19.198;2023-02-27T19:56:35;102970.49;;;6.17;64.95
68712;BME280;55690;51.566;19.198;2023-02-27T20:00:38;102979.65;;;6.08;65.79
68712;BME280;55690;51.566;19.198;2023-02-27T20:04:40;102985.02;;;6.10;66.30
68712;BME280;55690;51.566;19.198;2023-02-27T20:08:45;102984.28;;;6.03;66.31
68712;BME280;55690;51.566;19.198;2023-02-27T20:12:51;102979.81;;;6.45;64.87
68712;BME280;55690;51.566;19.198;2023-02-27T20:16:57;102988.52;;;6.58;64.48
68712;BME280;55690;51.566;19.198;2023-02-27T20:21:08;102980.92;;;6.35;65.56
68712;BME280;55690;51.566;19.198;2023-02-27T20:25:11;102989.84;;;5.94;66.57
68712;BME280;55690;51.566;19.198;2023-02-27T20:29:19;102989.47;;;6.12;66.80
68712;BME280;55690;51.566;19.198;2023-02-27T20:33:22;102992.77;;;5.79;67.48
68712;BME280;55690;51.566;19.198;2023-02-27T20:37:28;102992.62;;;5.89;67.40
68712;BME280;55690;51.566;19.198;2023-02-27T20:41:35;102994.35;;;5.93;68.37
68712;BME280;55690;51.566;19.198;2023-02-27T20:45:41;102991.00;;;5.78;68.06
68712;BME280;55690;51.566;19.198;2023-02-27T20:49:47;102987.63;;;6.14;67.31
68712;BME280;55690;51.566;19.198;2023-02-27T20:53:55;102985.90;;;6.10;67.19
68712;BME280;55690;51.566;19.198;2023-02-27T20:57:59;102987.02;;;6.02;66.06
68712;BME280;55690;51.566;19.198;2023-02-27T21:02:07;102985.83;;;6.15;65.81
68712;BME280;55690;51.566;19.198;2023-02-27T21:06:14;103012.00;;;5.60;66.75
68712;BME280;55690;51.566;19.198;2023-02-27T21:10:18;103022.90;;;5.53;66.89
68712;BME280;55690;51.566;19.198;2023-02-27T21:14:24;103018.63;;;5.40;65.95
68712;BME280;55690;51.566;19.198;2023-02-27T21:18:31;103014.13;;;5.92;64.76
68712;BME280;55690;51.566;19.198;2023-02-27T21:22:36;103016.73;;;5.98;64.42
68712;BME280;55690;51.566;19.198;2023-02-27T21:26:43;103018.09;;;5.70;65.56
68712;BME280;55690;51.566;19.198;2023-02-27T21:30:49;103019.57;;;5.91;64.86
68712;BME280;55690;51.566;19.198;2023-02-27T21:34:55;103026.93;;;5.24;65.51
68712;BME280;55690;51.566;19.198;2023-02-27T21:39:04;103033.90;;;5.39;65.33
68712;BME280;55690;51.566;19.198;2023-02-27T21:43:07;103037.44;;;5.43;65.35
68712;BME280;55690;51.566;19.198;2023-02-27T21:47:14;103037.26;;;5.53;65.70
68712;BME280;55690;51.566;19.198;2023-02-27T21:51:20;103040.91;;;5.51;65.75
68712;BME280;55690;51.566;19.198;2023-02-27T21:55:26;103030.93;;;5.56;65.42
68712;BME280;55690;51.566;19.198;2023-02-27T21:59:32;103034.96;;;5.27;66.21
68712;BME280;55690;51.566;19.198;2023-02-27T22:03:38;103050.09;;;5.36;66.10
68712;BME280;55690;51.566;19.198;2023-02-27T22:07:45;103044.63;;;5.42;66.27
68712;BME280;55690;51.566;19.198;2023-02-27T22:11:51;103045.70;;;5.30;66.00
68712;BME280;55690;51.566;19.198;2023-02-27T22:16:05;103047.23;;;5.48;65.76
68712;BME280;55690;51.566;19.198;2023-02-27T22:20:08;103046.61;;;5.29;66.33
68712;BME280;55690;51.566;19.198;2023-02-27T22:24:11;103043.99;;;5.25;65.54
68712;BME280;55690;51.566;19.198;2023-02-27T22:28:15;103044.30;;;5.05;65.48
68712;BME280;55690;51.566;19.198;2023-02-27T22:32:22;103048.70;;;5.12;65.56
68712;BME280;55690;51.566;19.198;2023-02-27T22:36:29;103047.72;;;5.18;65.75
68712;BME280;55690;51.566;19.198;2023-02-27T22:40:34;103053.89;;;5.23;66.86
68712;BME280;55690;51.566;19.198;2023-02-27T22:44:40;103053.84;;;5.26;65.74
68712;BME280;55690;51.566;19.198;2023-02-27T22:48:46;103060.27;;;5.19;65.90
68712;BME280;55690;51.566;19.198;2023-02-27T22:52:53;103056.68;;;5.18;66.07
68712;BME280;55690;51.566;19.198;2023-02-27T22:56:59;103056.58;;;5.23;65.27
68712;BME280;55690;51.566;19.198;2023-02-27T23:01:14;103065.70;;;5.16;65.72
68712;BME280;55690;51.566;19.198;2023-02-27T23:05:16;103065.02;;;4.98;65.61
68712;BME280;55690;51.566;19.198;2023-02-27T23:09:19;103068.96;;;4.75;65.48
68712;BME280;55690;51.566;19.198;2023-02-27T23:13:23;103080.99;;;4.42;65.59
68712;BME280;55690;51.566;19.198;2023-02-27T23:17:30;103072.92;;;4.42;66.42
68712;BME280;55690;51.566;19.198;2023-02-27T23:21:36;103082.77;;;4.44;64.83
68712;BME280;55690;51.566;19.198;2023-02-27T23:25:42;103076.24;;;4.65;65.16
68712;BME280;55690;51.566;19.198;2023-02-27T23:29:48;103083.62;;;4.48;65.62
68712;BME280;55690;51.566;19.198;2023-02-27T23:33:55;103085.87;;;4.83;65.55
68712;BME280;55690;51.566;19.198;2023-02-27T23:38:01;103086.30;;;4.49;65.38
68712;BME280;55690;51.566;19.198;2023-02-27T23:42:07;103090.34;;;4.06;64.97
68712;BME280;55690;51.566;19.198;2023-02-27T23:46:15;103103.77;;;4.07;65.64
68712;BME280;55690;51.566;19.198;2023-02-27T23:50:22;103099.20;;;4.17;65.57
68712;BME280;55690;51.566;19.198;2023-02-27T23:54:25;103095.25;;;4.50;64.79
68712;BME280;55690;51.566;19.198;2023-02-27T23:58:32;103089.22;;;4.29;64.59
